Time;durP1;ratioP1;P1;durP2;ratioP2;P2;SDS_P1;SDS_P2;PMS_P1;PMS_P2;Temp;Humidity;BMP_temperature;BMP_pressure;BME280_temperature;BME280_humidity;BME280_pressure;Samples;Min_cycle;Max_cycle;Signal;HPM_P1;HPM_P2
2024/02/22 00:00:51;;;;;;;34.53;26.23;;;9.30;78.90;;;;;;4986687;28;112657;-52
2024/02/22 00:03:17;;;;;;;37.15;28.25;;;9.10;79.10;;;;;;4987052;28;112673;-52
2024/02/22 00:05:43;;;;;;;37.35;27.98;;;9.10;79.40;;;;;;4986055;28;113768;-52
2024/02/22 00:08:08;;;;;;;34.53;29.05;;;9.10;79.60;;;;;;4971740;28;113386;-52
2024/02/22 00:10:34;;;;;;;35.75;29.02;;;9.10;79.90;;;;;;4986911;28;112450;-52
2024/02/22 00:13:00;;;;;;;33.53;26.85;;;9.00;79.70;;;;;;4986764;28;112658;-52
2024/02/22 00:15:26;;;;;;;34.15;29.52;;;9.10;79.60;;;;;;4986154;28;113196;-52
2024/02/22 00:17:52;;;;;;;34.55;30.27;;;9.00;79.90;;;;;;4985442;28;113810;-52
2024/02/22 00:20:18;;;;;;;35.35;31.55;;;9.00;80.20;;;;;;4986620;28;112727;-52
2024/02/22 00:22:44;;;;;;;36.97;30.98;;;8.90;80.70;;;;;;4986824;28;113157;-52
2024/02/22 00:25:10;;;;;;;39.42;31.02;;;9.00;80.70;;;;;;4985013;28;115408;-52
2024/02/22 00:27:38;;;;;;;35.45;30.25;;;8.90;80.70;;;;;;4986151;28;114171;-52
2024/02/22 00:30:05;;;;;;;38.03;30.15;;;8.90;80.80;;;;;;4986266;28;112900;-52
2024/02/22 00:32:31;;;;;;;32.80;28.85;;;8.90;80.90;;;;;;4986772;28;112975;-52
2024/02/22 00:34:57;;;;;;;34.35;28.55;;;9.00;80.70;;;;;;4985501;28;113654;-52
2024/02/22 00:37:23;;;;;;;29.98;26.65;;;9.00;80.80;;;;;;4984086;28;113667;-52
2024/02/22 00:39:49;;;;;;;32.75;27.25;;;8.90;80.80;;;;;;4986382;28;112547;-52
2024/02/22 00:42:14;;;;;;;33.67;28.15;;;8.90;80.80;;;;;;4986556;28;112632;-52
2024/02/22 00:44:41;;;;;;;30.45;26.65;;;8.90;80.90;;;;;;4985743;28;113005;-52
2024/02/22 00:47:07;;;;;;;29.42;26.35;;;8.90;80.90;;;;;;4985107;28;112666;-52
2024/02/22 00:49:33;;;;;;;30.02;26.83;;;8.90;80.90;;;;;;4986013;28;112846;-52
2024/02/22 00:51:58;;;;;;;32.33;27.48;;;8.90;80.60;;;;;;4984798;28;112957;-52
2024/02/22 00:54:24;;;;;;;31.60;27.80;;;8.90;80.30;;;;;;4985297;28;113174;-52
2024/02/22 00:56:50;;;;;;;32.80;27.70;;;8.90;80.70;;;;;;4985236;28;112591;-52
2024/02/22 00:59:15;;;;;;;31.77;27.52;;;8.80;80.90;;;;;;4986226;28;112466;-52
2024/02/22 01:01:41;;;;;;;30.88;27.55;;;8.80;80.90;;;;;;4986516;28;112668;-52
2024/02/22 01:04:07;;;;;;;35.97;26.80;;;8.80;81.00;;;;;;4985360;28;113584;-52
2024/02/22 01:06:34;;;;;;;30.88;27.63;;;8.70;81.40;;;;;;4985412;28;114482;-52
2024/02/22 01:09:00;;;;;;;32.85;27.50;;;8.60;81.70;;;;;;4986074;28;112843;-52
2024/02/22 01:11:26;;;;;;;30.73;27.45;;;8.60;81.90;;;;;;4986053;28;113128;-52
2024/02/22 01:13:51;;;;;;;33.60;29.95;;;8.70;81.30;;;;;;4985256;28;113189;-52
2024/02/22 01:16:18;;;;;;;31.55;28.25;;;8.60;81.40;;;;;;4984902;28;113065;-52
2024/02/22 01:18:43;;;;;;;33.08;29.52;;;8.60;81.70;;;;;;4986052;28;112546;-52
2024/02/22 01:21:11;;;;;;;37.35;31.60;;;8.50;81.80;;;;;;4985962;28;112711;-52
2024/02/22 01:23:36;;;;;;;36.88;31.55;;;8.50;81.90;;;;;;4985123;28;113227;-52
2024/02/22 01:26:02;;;;;;;36.20;32.28;;;8.40;82.00;;;;;;4985593;28;112634;-52
2024/02/22 01:28:28;;;;;;;40.25;32.17;;;8.50;81.70;;;;;;4985926;28;112686;-52
2024/02/22 01:30:53;;;;;;;39.25;32.83;;;8.40;81.80;;;;;;4986011;28;113071;-52
2024/02/22 01:33:19;;;;;;;36.05;32.15;;;8.40;82.10;;;;;;4984677;28;113458;-52
2024/02/22 01:35:45;;;;;;;36.42;32.53;;;8.30;82.30;;;;;;4984887;28;112689;-52
2024/02/22 01:38:10;;;;;;;37.20;33.17;;;8.30;82.40;;;;;;4989100;28;112415;-52
2024/02/22 01:40:36;;;;;;;35.63;31.60;;;8.40;82.20;;;;;;4989398;28;112789;-52
2024/02/22 01:43:02;;;;;;;36.97;31.23;;;8.40;81.90;;;;;;4988292;28;113416;-52
2024/02/22 01:45:27;;;;;;;35.45;30.63;;;8.40;82.00;;;;;;4987912;28;113803;-52
2024/02/22 01:47:54;;;;;;;40.30;33.35;;;8.40;82.00;;;;;;4989052;28;112623;-52
2024/02/22 01:50:20;;;;;;;35.58;31.52;;;8.40;82.00;;;;;;4989220;28;113070;-52
2024/02/22 01:52:46;;;;;;;37.15;33.00;;;8.40;82.00;;;;;;4988294;28;113348;-55
2024/02/22 01:55:14;;;;;;;38.63;34.42;;;8.50;82.00;;;;;;4988001;28;112941;-52
2024/02/22 01:57:40;;;;;;;41.25;35.28;;;8.50;81.90;;;;;;4987482;28;112792;-52
2024/02/22 02:00:17;;;;;;;40.15;35.05;;;8.50;82.10;;;;;;4988614;28;113023;-52
2024/02/22 02:02:44;;;;;;;39.67;33.40;;;8.40;82.40;;;;;;4987657;28;114125;-52
2024/02/22 02:05:09;;;;;;;37.08;32.80;;;8.60;82.30;;;;;;4987680;28;113054;-52
2024/02/22 02:07:36;;;;;;;37.30;33.38;;;8.50;82.50;;;;;;4987240;28;112590;-52
2024/02/22 02:10:03;;;;;;;40.25;34.42;;;8.50;82.30;;;;;;4988566;28;113107;-52
2024/02/22 02:12:29;;;;;;;39.65;34.85;;;8.40;82.70;;;;;;4987413;28;113768;-52
2024/02/22 02:14:56;;;;;;;37.65;32.67;;;8.40;82.90;;;;;;4987141;28;114191;-52
2024/02/22 02:17:23;;;;;;;38.80;34.13;;;8.40;82.70;;;;;;4988718;28;112698;-52
2024/02/22 02:19:50;;;;;;;37.22;31.98;;;8.40;82.70;;;;;;4988468;28;112643;-52
2024/02/22 02:22:47;;;;;;;37.08;33.00;;;8.50;82.20;;;;;;4987483;28;114436;-52
2024/02/22 02:25:13;;;;;;;35.45;31.65;;;8.50;82.20;;;;;;4987190;28;112948;-52
2024/02/22 02:27:39;;;;;;;38.08;33.90;;;8.50;82.10;;;;;;4987261;28;112781;-52
2024/02/22 02:30:05;;;;;;;36.97;32.97;;;8.30;82.40;;;;;;4988261;28;112659;-52
2024/02/22 02:32:31;;;;;;;40.70;33.88;;;8.40;82.20;;;;;;4987402;28;113863;-52
2024/02/22 02:34:57;;;;;;;41.00;36.22;;;8.40;82.40;;;;;;4987366;28;113118;-52
2024/02/22 02:37:22;;;;;;;39.65;35.40;;;8.30;82.80;;;;;;4988039;28;112778;-52
2024/02/22 02:39:48;;;;;;;43.00;34.13;;;8.30;83.00;;;;;;4988301;28;112719;-52
2024/02/22 02:42:15;;;;;;;40.47;35.95;;;8.30;82.80;;;;;;4986981;28;114414;-52
2024/02/22 02:44:40;;;;;;;41.85;37.33;;;8.40;83.10;;;;;;4987358;28;112918;-52
2024/02/22 02:47:08;;;;;;;39.78;35.55;;;8.30;83.10;;;;;;4987549;28;112659;-52
2024/02/22 02:49:33;;;;;;;40.78;35.90;;;8.30;83.30;;;;;;4987935;28;112780;-52
2024/02/22 02:51:59;;;;;;;42.63;38.10;;;8.40;83.20;;;;;;4986666;28;113698;-52
2024/02/22 02:54:25;;;;;;;43.65;38.95;;;8.30;83.50;;;;;;4986965;28;113283;-52
2024/02/22 02:56:50;;;;;;;41.28;36.88;;;8.40;83.70;;;;;;4988001;28;112515;-52
2024/02/22 02:59:16;;;;;;;43.83;38.15;;;8.40;83.70;;;;;;4988092;28;112767;-52
2024/02/22 03:01:48;;;;;;;40.33;36.22;;;8.40;83.80;;;;;;4987021;28;113177;-52
2024/02/22 03:04:18;;;;;;;42.75;38.15;;;8.40;83.60;;;;;;4986567;28;112829;-52
2024/02/22 03:06:45;;;;;;;39.33;35.22;;;8.50;83.40;;;;;;4987612;28;113143;-52
2024/02/22 03:09:11;;;;;;;39.67;35.50;;;8.50;83.30;;;;;;4987451;28;112743;-52
2024/02/22 03:11:37;;;;;;;41.17;36.85;;;8.50;83.40;;;;;;4986907;28;114074;-52
2024/02/22 03:14:03;;;;;;;42.60;38.17;;;8.40;83.50;;;;;;4986656;28;112922;-52
2024/02/22 03:16:29;;;;;;;44.58;39.80;;;8.40;83.60;;;;;;4987358;28;112918;-52
2024/02/22 03:18:55;;;;;;;41.95;37.33;;;8.40;84.20;;;;;;4987621;28;112710;-52
2024/02/22 03:21:21;;;;;;;42.58;38.15;;;8.50;83.90;;;;;;4986671;28;113227;-51
2024/02/22 03:23:47;;;;;;;42.03;37.67;;;8.50;84.20;;;;;;4986745;28;112745;-52
2024/02/22 03:26:13;;;;;;;41.25;36.95;;;8.70;83.70;;;;;;4987761;28;112791;-52
2024/02/22 03:28:38;;;;;;;46.80;41.90;;;8.60;83.90;;;;;;4987577;28;113073;-52
2024/02/22 03:31:04;;;;;;;46.28;41.35;;;8.70;84.20;;;;;;4986632;28;113679;-52
2024/02/22 03:33:31;;;;;;;46.65;41.85;;;8.80;84.20;;;;;;4986490;28;112989;-52
2024/02/22 03:36:00;;;;;;;45.90;40.92;;;8.80;84.30;;;;;;4987357;28;112480;-52
2024/02/22 03:38:26;;;;;;;45.22;40.50;;;8.80;84.20;;;;;;4986981;28;112691;-52
2024/02/22 03:40:53;;;;;;;42.60;38.22;;;8.80;84.20;;;;;;4986242;28;114525;-52
2024/02/22 03:43:20;;;;;;;42.30;37.60;;;8.90;83.70;;;;;;4986135;28;112862;-52
2024/02/22 03:45:45;;;;;;;44.47;39.83;;;8.90;83.80;;;;;;4987149;28;112572;-52
2024/02/22 03:48:11;;;;;;;48.55;43.45;;;8.90;84.00;;;;;;4986877;28;112988;-52
2024/02/22 03:50:37;;;;;;;45.35;39.00;;;8.80;84.00;;;;;;4986650;28;114303;-52
2024/02/22 03:53:03;;;;;;;43.63;39.13;;;8.90;83.70;;;;;;4986374;28;112948;-52
2024/02/22 03:55:30;;;;;;;44.75;40.08;;;8.90;83.80;;;;;;4986832;28;112583;-52
2024/02/22 03:57:56;;;;;;;43.47;38.83;;;9.00;83.80;;;;;;4987031;28;112800;-52
2024/02/22 04:00:22;;;;;;;42.92;38.20;;;9.10;83.30;;;;;;4985303;28;113439;-52
2024/02/22 04:02:48;;;;;;;43.88;39.22;;;9.10;83.10;;;;;;4985676;28;112644;-52
2024/02/22 04:05:16;;;;;;;45.88;40.10;;;9.10;83.60;;;;;;4986747;28;112564;-52
2024/02/22 04:07:42;;;;;;;50.78;43.20;;;9.00;84.10;;;;;;4986924;28;112662;-52
2024/02/22 04:10:09;;;;;;;44.13;39.40;;;9.10;84.00;;;;;;4985722;28;113299;-52
2024/02/22 04:12:35;;;;;;;49.97;43.72;;;9.10;83.60;;;;;;4985453;28;114515;-52
2024/02/22 04:15:00;;;;;;;48.78;43.42;;;9.10;83.80;;;;;;4986730;28;112669;-52
2024/02/22 04:17:26;;;;;;;43.15;38.50;;;9.20;83.60;;;;;;4986753;28;113094;-52
2024/02/22 04:19:52;;;;;;;45.15;39.97;;;9.30;83.30;;;;;;4986209;28;113306;-52
2024/02/22 04:22:18;;;;;;;50.08;43.90;;;9.40;82.50;;;;;;4985790;28;112667;-52
2024/02/22 04:24:44;;;;;;;47.95;42.55;;;9.30;83.20;;;;;;4984979;28;112681;-52
2024/02/22 04:27:10;;;;;;;53.08;47.47;;;9.40;82.70;;;;;;4986993;28;113306;-52
2024/02/22 04:29:36;;;;;;;48.47;42.58;;;9.40;82.90;;;;;;4985741;28;113588;-52
2024/02/22 04:32:02;;;;;;;45.92;41.00;;;9.30;83.40;;;;;;4985568;28;112860;-52
2024/02/22 04:34:28;;;;;;;46.20;41.00;;;9.40;82.90;;;;;;4986564;28;112554;-52
2024/02/22 04:36:55;;;;;;;47.55;41.97;;;9.60;82.40;;;;;;4986506;28;112769;-52
2024/02/22 04:39:20;;;;;;;52.08;43.38;;;9.60;82.10;;;;;;4985348;28;114444;-52
2024/02/22 04:41:46;;;;;;;48.78;42.80;;;9.50;82.90;;;;;;4986042;28;112933;-52
2024/02/22 04:44:12;;;;;;;48.35;41.75;;;9.60;82.40;;;;;;4986673;28;112579;-52
2024/02/22 04:46:37;;;;;;;53.22;45.45;;;9.60;82.60;;;;;;4986344;28;112702;-52
2024/02/22 04:49:04;;;;;;;48.08;42.85;;;9.50;83.00;;;;;;4985479;28;113225;-52
2024/02/22 04:51:34;;;;;;;47.25;40.67;;;9.50;83.00;;;;;;4984855;28;113544;-52
2024/02/22 04:54:03;;;;;;;48.65;42.50;;;9.50;82.80;;;;;;4986043;28;112544;-52
2024/02/22 04:56:29;;;;;;;50.50;44.25;;;9.60;83.00;;;;;;4986110;28;112695;-52
2024/02/22 04:58:58;;;;;;;54.53;46.45;;;9.50;83.40;;;;;;4985094;28;113170;-52
2024/02/22 05:01:26;;;;;;;55.80;48.65;;;9.30;84.10;;;;;;4984966;28;112886;-52
2024/02/22 05:03:53;;;;;;;54.47;46.67;;;9.20;84.60;;;;;;4985690;28;112845;-52
2024/02/22 05:06:19;;;;;;;51.53;45.50;;;9.20;84.70;;;;;;4986086;28;112831;-52
2024/02/22 05:08:44;;;;;;;49.75;43.95;;;9.30;83.90;;;;;;4984825;28;115117;-52
2024/02/22 05:11:10;;;;;;;53.80;45.38;;;9.40;83.70;;;;;;4987578;28;112964;-52
2024/02/22 05:13:36;;;;;;;56.75;48.05;;;9.40;83.80;;;;;;4989556;28;112588;-52
2024/02/22 05:16:01;;;;;;;57.60;48.72;;;9.30;84.00;;;;;;4989185;28;112695;-52
2024/02/22 05:18:27;;;;;;;55.35;45.90;;;9.20;84.40;;;;;;5003961;28;113159;-52
2024/02/22 05:20:53;;;;;;;57.75;47.80;;;9.10;84.50;;;;;;4988610;28;113123;-52
2024/02/22 05:23:18;;;;;;;58.67;48.88;;;9.30;84.00;;;;;;4989299;28;112550;-52
2024/02/22 05:25:44;;;;;;;64.45;49.90;;;9.30;84.10;;;;;;4989504;28;112810;-52
2024/02/22 05:28:10;;;;;;;61.15;49.15;;;9.10;84.90;;;;;;4988428;28;113576;-52
2024/02/22 05:30:36;;;;;;;61.47;50.42;;;9.10;85.10;;;;;;4988546;28;112611;-52
2024/02/22 05:33:02;;;;;;;65.80;50.90;;;9.20;84.60;;;;;;4989448;28;113281;-52
2024/02/22 05:35:29;;;;;;;62.80;49.38;;;9.20;84.90;;;;;;4989307;28;112981;-52
2024/02/22 05:37:54;;;;;;;62.58;51.13;;;9.20;84.90;;;;;;4988156;28;113826;-52
2024/02/22 05:40:20;;;;;;;64.95;51.67;;;9.30;84.60;;;;;;4987889;28;112662;-52
2024/02/22 05:42:46;;;;;;;66.68;52.67;;;9.30;84.50;;;;;;4989004;28;113307;-52
2024/02/22 05:45:12;;;;;;;60.67;48.95;;;9.40;84.50;;;;;;4989177;28;112948;-52
2024/02/22 05:47:38;;;;;;;65.15;48.58;;;9.40;84.10;;;;;;4987957;28;114323;-52
2024/02/22 05:50:04;;;;;;;71.97;50.28;;;9.50;83.70;;;;;;4987783;28;113766;-52
2024/02/22 05:52:29;;;;;;;83.05;56.53;;;9.50;83.70;;;;;;4988973;28;112504;-52
2024/02/22 05:54:55;;;;;;;80.20;53.28;;;9.40;84.30;;;;;;4989028;28;112968;-51
2024/02/22 05:57:21;;;;;;;89.10;57.33;;;9.40;84.30;;;;;;4987895;28;113222;-51
2024/02/22 05:59:46;;;;;;;88.07;54.63;;;9.40;84.30;;;;;;4987885;28;113736;-52
2024/02/22 06:02:14;;;;;;;90.20;54.03;;;9.40;84.60;;;;;;4988871;28;112806;-52
2024/02/22 06:04:39;;;;;;;87.53;52.90;;;9.50;84.00;;;;;;4988587;28;112710;-52
2024/02/22 06:07:05;;;;;;;90.88;54.78;;;9.70;83.60;;;;;;4987874;28;113213;-52
2024/02/22 06:09:31;;;;;;;88.00;53.75;;;9.60;83.90;;;;;;4987404;28;113003;-52
2024/02/22 06:11:57;;;;;;;91.60;55.17;;;9.70;84.00;;;;;;4988567;28;112884;-52
2024/02/22 06:14:23;;;;;;;98.90;56.83;;;9.60;84.30;;;;;;4988729;28;113040;-52
2024/02/22 06:16:48;;;;;;;89.13;51.53;;;9.50;84.70;;;;;;4987536;28;113471;-52
2024/02/22 06:19:14;;;;;;;88.50;54.03;;;9.70;84.30;;;;;;4987453;28;112811;-52
2024/02/22 06:21:40;;;;;;;90.50;52.80;;;9.80;83.90;;;;;;4987831;28;112797;-52
2024/02/22 06:24:07;;;;;;;87.25;51.45;;;9.70;84.50;;;;;;4988577;28;112619;-52
2024/02/22 06:26:33;;;;;;;85.25;50.42;;;9.80;84.10;;;;;;4987737;28;113951;-52
2024/02/22 06:29:00;;;;;;;91.50;53.10;;;9.80;83.90;;;;;;4987270;28;113471;-52
2024/02/22 06:31:26;;;;;;;96.50;53.00;;;9.80;84.40;;;;;;4988298;28;113022;-52
2024/02/22 06:33:52;;;;;;;85.20;53.92;;;9.80;84.50;;;;;;4989897;28;112664;-52
2024/02/22 06:36:19;;;;;;;92.10;53.22;;;9.90;83.90;;;;;;4987309;28;113294;-52
2024/02/22 06:38:45;;;;;;;92.78;52.58;;;9.80;84.40;;;;;;4987272;28;112815;-52
2024/02/22 06:41:13;;;;;;;91.72;53.03;;;9.80;84.40;;;;;;4988192;28;112820;-52
2024/02/22 06:43:38;;;;;;;103.20;55.08;;;9.90;84.40;;;;;;4988003;28;113025;-52
2024/02/22 06:46:06;;;;;;;96.10;54.83;;;9.80;84.70;;;;;;4987464;28;114495;-52
2024/02/22 06:48:31;;;;;;;88.30;53.15;;;9.80;84.90;;;;;;4986907;28;112846;-52
2024/02/22 06:50:59;;;;;;;80.93;50.85;;;9.90;84.30;;;;;;4988500;28;112984;-52
2024/02/22 06:53:24;;;;;;;99.28;57.90;;;10.00;83.80;;;;;;4987787;28;112713;-52
2024/02/22 06:55:50;;;;;;;95.53;54.40;;;9.90;84.50;;;;;;4986652;28;114313;-52
2024/02/22 06:58:16;;;;;;;86.60;51.40;;;9.90;84.60;;;;;;4986916;28;114289;-52
2024/02/22 07:00:42;;;;;;;97.07;54.30;;;10.00;84.30;;;;;;4987778;28;113997;-52
2024/02/22 07:03:08;;;;;;;90.45;54.65;;;10.10;84.30;;;;;;4988021;28;112671;-52
2024/02/22 07:05:34;;;;;;;90.20;53.65;;;10.20;83.70;;;;;;4986551;28;113207;-52
2024/02/22 07:08:00;;;;;;;88.97;54.70;;;10.30;83.50;;;;;;4986679;28;112657;-52
2024/02/22 07:10:25;;;;;;;91.97;52.78;;;10.30;83.80;;;;;;4987829;28;112940;-52
2024/02/22 07:12:51;;;;;;;101.85;57.83;;;10.30;83.60;;;;;;4987818;28;112989;-52
2024/02/22 07:15:17;;;;;;;102.53;56.33;;;10.20;84.20;;;;;;4986881;28;113424;-52
2024/02/22 07:17:44;;;;;;;96.30;56.00;;;10.20;84.00;;;;;;4986065;28;113994;-52
2024/02/22 07:20:11;;;;;;;97.60;56.15;;;10.30;83.90;;;;;;4987453;28;112706;-52
2024/02/22 07:22:37;;;;;;;89.53;55.55;;;10.40;83.30;;;;;;4987550;28;112800;-52
2024/02/22 07:25:02;;;;;;;96.50;56.72;;;10.40;83.30;;;;;;4986572;28;113109;-52
2024/02/22 07:27:28;;;;;;;98.90;57.35;;;10.50;83.00;;;;;;4987440;28;113310;-52
2024/02/22 07:29:54;;;;;;;98.88;59.30;;;10.50;83.10;;;;;;4987425;28;114441;-52
2024/02/22 07:32:20;;;;;;;96.75;58.20;;;10.40;83.50;;;;;;4987382;28;112920;-52
2024/02/22 07:34:46;;;;;;;97.57;57.35;;;10.50;83.10;;;;;;4986541;28;113328;-52
2024/02/22 07:37:12;;;;;;;99.25;56.58;;;10.60;83.00;;;;;;4986505;28;113096;-52
2024/02/22 07:39:37;;;;;;;93.60;58.35;;;10.70;82.70;;;;;;4987414;28;112891;-52
2024/02/22 07:42:04;;;;;;;103.07;60.00;;;10.70;82.50;;;;;;4986762;28;113269;-52
2024/02/22 07:44:29;;;;;;;93.60;57.15;;;10.60;83.10;;;;;;4986407;28;113644;-53
2024/02/22 07:46:55;;;;;;;96.90;59.22;;;10.50;83.10;;;;;;4985952;28;113768;-52
2024/02/22 07:49:21;;;;;;;99.00;59.63;;;10.50;83.40;;;;;;4987183;28;112553;-52
2024/02/22 07:51:47;;;;;;;100.00;62.45;;;10.50;83.50;;;;;;4987148;28;112627;-52
2024/02/22 07:54:13;;;;;;;95.53;59.00;;;10.40;84.10;;;;;;4985946;28;113859;-52
2024/02/22 07:56:40;;;;;;;95.00;57.97;;;10.50;83.90;;;;;;4985935;28;112589;-52
2024/02/22 07:59:08;;;;;;;91.18;57.03;;;10.50;84.00;;;;;;4986697;28;112544;-52
2024/02/22 08:01:36;;;;;;;84.88;53.05;;;10.70;83.00;;;;;;4986978;28;112746;-52
2024/02/22 08:04:02;;;;;;;85.65;53.15;;;10.90;82.10;;;;;;4985525;28;114341;-52
2024/02/22 08:06:27;;;;;;;83.80;52.58;;;11.00;82.00;;;;;;4985232;28;113775;-52
2024/02/22 08:08:53;;;;;;;82.20;53.20;;;11.00;81.80;;;;;;4984651;28;112900;-52
2024/02/22 08:11:20;;;;;;;84.72;51.28;;;11.00;81.90;;;;;;4986167;28;112888;-52
2024/02/22 08:13:47;;;;;;;93.68;56.22;;;11.00;82.10;;;;;;4985224;28;114206;-52
2024/02/22 08:16:13;;;;;;;95.07;55.05;;;10.90;82.70;;;;;;4985223;28;112862;-52
2024/02/22 08:18:42;;;;;;;84.93;51.88;;;10.80;82.90;;;;;;4986141;28;112881;-52
2024/02/22 08:21:08;;;;;;;81.05;51.28;;;10.80;82.80;;;;;;4986053;28;112786;-52
2024/02/22 08:23:34;;;;;;;79.90;50.80;;;11.00;82.60;;;;;;4985469;28;113240;-52
2024/02/22 08:26:00;;;;;;;86.93;53.50;;;11.10;82.00;;;;;;4985355;28;113867;-52
2024/02/22 08:28:28;;;;;;;85.50;53.67;;;11.10;82.30;;;;;;4986156;28;113296;-52
2024/02/22 08:30:54;;;;;;;79.07;50.70;;;11.20;82.40;;;;;;4985916;28;112795;-52
2024/02/22 08:33:22;;;;;;;88.30;50.88;;;11.30;82.00;;;;;;4985207;28;113329;-54
2024/02/22 08:35:48;;;;;;;79.28;51.25;;;11.50;81.00;;;;;;4984907;28;114077;-52
2024/02/22 08:38:14;;;;;;;80.38;49.90;;;11.70;80.50;;;;;;4985880;28;112767;-52
2024/02/22 08:40:43;;;;;;;77.72;50.92;;;11.60;81.20;;;;;;4986291;28;112885;-52
2024/02/22 08:43:09;;;;;;;78.85;48.45;;;11.70;81.00;;;;;;4984697;28;114511;-52
2024/02/22 08:45:35;;;;;;;72.10;46.25;;;11.50;81.80;;;;;;4986408;28;112725;-52
2024/02/22 08:48:02;;;;;;;76.95;47.53;;;11.60;81.40;;;;;;4989895;28;112652;-52
2024/02/22 08:50:29;;;;;;;76.10;46.15;;;11.50;81.50;;;;;;4989538;28;112948;-52
2024/02/22 08:52:55;;;;;;;86.60;55.28;;;11.60;81.30;;;;;;4988221;28;113496;-52
2024/02/22 08:55:21;;;;;;;78.85;48.40;;;11.50;81.40;;;;;;4988487;28;113140;-52
2024/02/22 08:57:47;;;;;;;74.88;45.13;;;11.40;81.90;;;;;;4988191;28;112783;-52
2024/02/22 09:00:13;;;;;;;71.22;41.33;;;11.40;81.80;;;;;;4989770;28;112923;-52
2024/02/22 09:02:40;;;;;;;69.30;42.63;;;11.50;81.40;;;;;;4988439;28;114233;-52
2024/02/22 09:05:06;;;;;;;72.80;44.20;;;11.60;81.10;;;;;;4988686;28;112614;-52
2024/02/22 09:07:34;;;;;;;71.72;43.03;;;11.50;81.40;;;;;;4988809;28;113026;-52
2024/02/22 09:10:00;;;;;;;78.07;44.75;;;11.30;82.30;;;;;;4989639;28;112683;-52
2024/02/22 09:12:26;;;;;;;76.30;43.65;;;11.20;83.10;;;;;;4988527;28;113169;-52
2024/02/22 09:14:52;;;;;;;76.38;43.55;;;11.30;82.50;;;;;;4976096;28;113825;-52
2024/02/22 09:17:18;;;;;;;74.90;43.95;;;11.30;82.60;;;;;;4987166;28;112579;-52
2024/02/22 09:19:43;;;;;;;71.25;41.75;;;11.50;82.20;;;;;;4989281;28;113227;-52
2024/02/22 09:22:12;;;;;;;73.45;42.50;;;11.70;81.60;;;;;;4988271;28;113273;-52
2024/02/22 09:24:45;;;;;;;71.95;42.42;;;11.70;81.60;;;;;;4988203;28;113189;-52
2024/02/22 09:27:12;;;;;;;80.00;45.78;;;11.90;81.00;;;;;;4989360;28;112840;-52
2024/02/22 09:29:38;;;;;;;72.80;43.88;;;11.90;81.30;;;;;;4988930;28;112694;-52
2024/02/22 09:32:07;;;;;;;77.60;47.22;;;11.90;81.20;;;;;;4988035;28;113159;-52
2024/02/22 09:34:34;;;;;;;78.45;45.63;;;11.80;81.20;;;;;;4987932;28;112583;-52
2024/02/22 09:37:01;;;;;;;78.47;46.35;;;11.90;81.10;;;;;;4989169;28;113086;-52
2024/02/22 09:39:27;;;;;;;84.45;48.90;;;11.90;81.00;;;;;;4988882;28;114257;-52
2024/02/22 09:41:55;;;;;;;84.25;49.47;;;11.90;81.10;;;;;;4987837;28;113280;-52
2024/02/22 09:44:21;;;;;;;96.47;54.05;;;11.90;81.80;;;;;;4981941;28;112942;-52
2024/02/22 09:46:53;;;;;;;83.30;49.08;;;11.70;82.60;;;;;;4988389;28;112503;-52
2024/02/22 09:49:23;;;;;;;95.00;53.78;;;11.80;82.40;;;;;;4987389;28;113323;-53
2024/02/22 09:51:53;;;;;;;95.18;55.83;;;11.80;82.60;;;;;;4987610;28;113152;-52
2024/02/22 09:54:20;;;;;;;84.25;53.88;;;11.90;82.20;;;;;;4987538;28;113054;-52
2024/02/22 09:56:48;;;;;;;85.93;54.17;;;11.80;82.30;;;;;;4987563;28;112764;-53
2024/02/22 09:59:14;;;;;;;86.45;54.72;;;11.70;82.50;;;;;;4988382;28;112722;-52
2024/02/22 10:01:44;;;;;;;82.90;51.65;;;11.80;82.50;;;;;;4987572;28;113201;-52
2024/02/22 10:04:17;;;;;;;79.95;51.63;;;11.90;82.20;;;;;;4985400;28;113181;-52
2024/02/22 10:06:43;;;;;;;77.47;51.60;;;12.30;81.20;;;;;;4987991;28;113935;-52
2024/02/22 10:09:08;;;;;;;80.55;52.78;;;12.40;80.70;;;;;;4987295;28;113041;-53
2024/02/22 10:11:44;;;;;;;84.28;53.13;;;12.30;81.40;;;;;;4987332;28;113128;-53
2024/02/22 10:14:13;;;;;;;77.53;50.90;;;12.20;81.60;;;;;;4987182;28;112908;-52
2024/02/22 10:16:44;;;;;;;80.82;54.25;;;12.30;81.20;;;;;;4987898;28;112974;-52
2024/02/22 10:19:14;;;;;;;79.15;53.20;;;12.20;81.60;;;;;;4988275;28;112682;-52
2024/02/22 10:21:40;;;;;;;78.05;54.67;;;12.40;81.20;;;;;;4981498;28;114607;-54
2024/02/22 10:24:08;;;;;;;69.30;51.10;;;12.50;80.90;;;;;;4987236;28;112976;-52
2024/02/22 10:26:34;;;;;;;66.05;50.72;;;12.60;80.40;;;;;;4988852;28;113235;-52
2024/02/22 10:29:07;;;;;;;66.63;51.05;;;12.70;79.70;;;;;;4987684;28;112894;-52
2024/02/22 10:31:50;;;;;;;70.10;51.38;;;12.70;79.80;;;;;;4987351;28;113313;-52
2024/02/22 10:34:20;;;;;;;67.05;50.30;;;12.40;80.20;;;;;;4987006;28;112819;-53
2024/02/22 10:36:48;;;;;;;66.43;49.75;;;12.30;80.40;;;;;;4987937;28;112949;-52
2024/02/22 10:39:14;;;;;;;67.25;51.65;;;12.30;80.70;;;;;;4987748;28;112920;-52
2024/02/22 10:41:43;;;;;;;69.63;52.45;;;12.20;80.80;;;;;;4986971;28;113839;-52
2024/02/22 10:44:11;;;;;;;67.80;50.90;;;12.00;81.40;;;;;;4986690;28;112891;-52
2024/02/22 10:46:39;;;;;;;68.13;51.80;;;12.20;81.20;;;;;;4987588;28;113385;-52
2024/02/22 10:49:12;;;;;;;62.88;49.00;;;12.10;81.40;;;;;;4987289;28;112704;-53
2024/02/22 10:51:42;;;;;;;59.25;46.78;;;12.40;80.10;;;;;;4986902;28;115935;-52
2024/02/22 10:54:13;;;;;;;58.03;45.30;;;12.60;78.70;;;;;;4986401;28;114952;-52
2024/02/22 10:56:45;;;;;;;56.13;46.05;;;13.00;77.80;;;;;;4987199;28;113008;-52
2024/02/22 10:59:17;;;;;;;58.63;45.92;;;13.10;76.70;;;;;;4987418;28;113125;-53
2024/02/22 11:01:50;;;;;;;56.90;45.65;;;13.20;76.10;;;;;;4986418;28;115171;-53
2024/02/22 11:04:19;;;;;;;53.38;45.05;;;13.20;76.00;;;;;;4986870;28;112759;-52
2024/02/22 11:06:49;;;;;;;58.20;46.25;;;13.20;75.70;;;;;;4987195;28;113292;-53
2024/02/22 11:09:20;;;;;;;59.67;47.78;;;12.90;76.90;;;;;;4986592;28;112714;-53
2024/02/22 11:11:48;;;;;;;66.30;49.33;;;12.90;77.90;;;;;;4986721;28;113278;-52
2024/02/22 11:14:28;;;;;;;61.83;48.35;;;12.70;78.60;;;;;;4986101;28;114191;-52
2024/02/22 11:17:05;;;;;;;59.80;46.50;;;12.70;78.40;;;;;;4987303;28;112695;-53
2024/02/22 11:19:35;;;;;;;55.22;45.97;;;12.70;78.30;;;;;;4984228;28;112579;-52
2024/02/22 11:22:12;;;;;;;58.25;46.00;;;12.60;78.10;;;;;;4986337;28;115323;-53
2024/02/22 11:24:38;;;;;;;56.33;45.30;;;12.30;78.60;;;;;;4983282;28;112863;-52
2024/02/22 11:27:04;;;;;;;60.30;46.00;;;12.20;78.70;;;;;;4988034;28;113244;-53
2024/02/22 11:29:36;;;;;;;60.65;47.63;;;12.10;79.70;;;;;;4987148;28;112686;-52
2024/02/22 11:32:03;;;;;;;61.28;47.42;;;12.00;79.80;;;;;;4986245;28;115756;-52
2024/02/22 11:34:30;;;;;;;60.33;47.42;;;11.90;80.60;;;;;;4985689;28;112958;-53
2024/02/22 11:37:17;;;;;;;67.03;50.83;;;11.90;81.00;;;;;;4985435;28;113406;-52
2024/02/22 11:39:59;;;;;;;64.05;50.25;;;11.90;81.30;;;;;;4986296;28;112780;-53
2024/02/22 11:42:26;;;;;;;65.55;50.38;;;11.90;81.70;;;;;;4984630;28;114611;-52
2024/02/22 11:44:53;;;;;;;61.35;49.70;;;12.00;81.10;;;;;;4985598;28;113163;-53
2024/02/22 11:47:19;;;;;;;67.13;50.50;;;12.00;81.00;;;;;;4987451;28;112511;-53
2024/02/22 11:49:45;;;;;;;59.55;46.83;;;12.10;81.30;;;;;;4986559;28;112945;-53
2024/02/22 11:52:11;;;;;;;61.42;49.53;;;12.10;80.60;;;;;;4985582;28;113314;-53
2024/02/22 11:54:38;;;;;;;62.30;48.47;;;12.10;80.40;;;;;;4985539;28;113194;-53
2024/02/22 11:57:04;;;;;;;65.03;49.42;;;12.10;79.60;;;;;;4986273;28;112676;-53
2024/02/22 11:59:33;;;;;;;63.25;50.28;;;11.90;80.20;;;;;;4986886;28;112722;-53
2024/02/22 12:02:00;;;;;;;61.60;47.75;;;11.90;80.20;;;;;;4985205;28;113374;-53
2024/02/22 12:04:30;;;;;;;60.85;49.03;;;12.10;79.90;;;;;;4985732;28;112859;-53
2024/02/22 12:06:56;;;;;;;65.00;50.00;;;11.80;80.40;;;;;;4986501;28;112706;-53
2024/02/22 12:09:22;;;;;;;66.15;50.38;;;11.90;79.70;;;;;;4986367;28;114524;-53
2024/02/22 12:11:48;;;;;;;65.38;49.97;;;11.90;80.50;;;;;;4984683;28;113641;-53
2024/02/22 12:14:14;;;;;;;65.38;49.67;;;12.00;80.60;;;;;;4985080;28;113661;-53
2024/02/22 12:16:40;;;;;;;68.25;51.97;;;11.80;80.70;;;;;;4985938;28;112712;-53
2024/02/22 12:19:06;;;;;;;66.97;51.25;;;11.90;80.70;;;;;;4985448;28;113481;-53
2024/02/22 12:21:36;;;;;;;71.43;51.85;;;11.90;80.70;;;;;;4984709;28;114880;-53